Terminal Aerodrome Forecast
Issued by NWS

Home | Current Version | Previous Version | Text Only | Print | Product List | Glossary On
Versions: 1 2 3 4 5 6 7 8 9 10 11 12 13 14 15 16 17 18 19 20 21 22 23 24 25 26 27 28 29 30 31 32 33 34 35 36 37
000
FTUS43 KLOT 292329
TAFMDW
TAF
KMDW 292329Z 3000/3024 24012G20KT P6SM VCSH SCT040 SCT120 BKN250
     FM300200 22009KT P6SM SCT040 BKN250
     FM300600 23008KT P6SM VCSH BKN045
     FM301000 25008KT 4SM SHRA SCT020 OVC040
     FM301400 02015G27KT 3SM RA OVC007
     FM302300 02018G27KT P6SM VCSH SCT007 BKN020=

USA.gov is the U.S. government's official web portal to all federal, state and local government web resources and services.